createdAt,value
2022-07-28T00:01:19.953Z,2.55
2022-07-28T00:03:50.802Z,3.40
2022-07-28T00:06:20.513Z,3.22
2022-07-28T00:08:49.845Z,5.47
2022-07-28T00:11:19.861Z,3.98
2022-07-28T00:13:51.832Z,3.92
2022-07-28T00:16:21.823Z,2.40
2022-07-28T00:18:52.086Z,4.83
2022-07-28T00:21:24.183Z,3.62
2022-07-28T00:23:55.263Z,3.10
2022-07-28T00:26:25.483Z,2.37
2022-07-28T00:28:55.761Z,4.70
2022-07-28T00:31:26.373Z,3.00
2022-07-28T00:33:56.179Z,2.70
2022-07-28T00:36:26.871Z,3.15
2022-07-28T00:38:56.689Z,5.20
2022-07-28T00:41:26.292Z,4.67
2022-07-28T00:43:55.568Z,3.90
2022-07-28T00:46:25.289Z,3.58
2022-07-28T00:48:55.198Z,3.62
2022-07-28T00:51:28.618Z,5.22
2022-07-28T00:53:58.426Z,2.80
2022-07-28T00:56:29.076Z,4.15
2022-07-28T00:58:59.406Z,4.62
2022-07-28T01:01:28.794Z,4.47
2022-07-28T01:04:01.229Z,5.83
2022-07-28T01:06:51.254Z,5.40
2022-07-28T01:09:45.436Z,4.67
2022-07-28T01:12:51.894Z,4.60
2022-07-28T01:15:26.272Z,4.42
2022-07-28T01:18:22.195Z,5.08
2022-07-28T01:21:10.176Z,5.83
2022-07-28T01:24:00.196Z,4.00
2022-07-28T01:26:44.399Z,4.08
2022-07-28T01:30:02.386Z,5.45
2022-07-28T01:32:42.247Z,5.23
2022-07-28T01:35:24.311Z,5.72
2022-07-28T01:37:57.620Z,4.97
2022-07-28T01:40:29.761Z,5.28
2022-07-28T01:43:02.019Z,4.33
2022-07-28T01:45:32.726Z,4.10
2022-07-28T01:48:04.743Z,3.83
2022-07-28T01:50:37.280Z,5.37
2022-07-28T01:53:12.250Z,4.60
2022-07-28T01:55:42.944Z,4.05
2022-07-28T01:58:13.686Z,5.30
2022-07-28T02:00:43.514Z,4.17
2022-07-28T02:03:13.412Z,5.25
2022-07-28T02:05:43.638Z,4.45
2022-07-28T02:08:13.448Z,5.30
2022-07-28T02:10:43.761Z,3.83
2022-07-28T02:13:13.663Z,3.67
2022-07-28T02:15:43.599Z,3.70
2022-07-28T02:18:13.255Z,6.00
2022-07-28T02:20:42.721Z,2.92
2022-07-28T02:23:14.295Z,3.85
2022-07-28T02:25:45.566Z,4.40
2022-07-28T02:28:16.860Z,3.85
2022-07-28T02:30:52.507Z,3.65
2022-07-28T02:33:24.430Z,3.27
2022-07-28T02:36:18.145Z,3.92
2022-07-28T02:38:47.873Z,3.95
2022-07-28T02:41:28.197Z,3.58
2022-07-28T02:44:08.947Z,3.55
2022-07-28T02:46:42.681Z,4.97
2022-07-28T02:49:18.387Z,4.90
2022-07-28T02:51:48.190Z,3.05
2022-07-28T02:54:18.390Z,4.85
2022-07-28T02:56:53.197Z,4.00
2022-07-28T02:59:25.149Z,4.25
2022-07-28T03:01:55.103Z,4.00
2022-07-28T03:04:44.993Z,4.53
2022-07-28T03:07:14.572Z,4.70
2022-07-28T03:09:46.796Z,5.35
2022-07-28T03:12:17.955Z,4.22
2022-07-28T03:14:48.003Z,3.72
2022-07-28T03:17:17.594Z,3.60
2022-07-28T03:19:47.310Z,2.95
2022-07-28T03:22:18.543Z,5.83
2022-07-28T03:24:52.289Z,4.55
2022-07-28T03:27:30.963Z,2.87
2022-07-28T03:30:08.035Z,4.42
2022-07-28T03:35:10.020Z,6.97
2022-07-28T03:37:59.694Z,3.62
2022-07-28T03:40:29.482Z,2.02
2022-07-28T03:43:00.449Z,6.62
2022-07-28T03:45:30.327Z,4.33
2022-07-28T03:48:01.862Z,3.15
2022-07-28T03:50:32.735Z,3.30
2022-07-28T03:53:06.091Z,3.62
2022-07-28T03:55:39.355Z,3.60
2022-07-28T03:58:09.333Z,5.60
2022-07-28T04:00:38.969Z,5.45
2022-07-28T04:03:35.206Z,2.55
2022-07-28T04:05:40.578Z,6.50
2022-07-28T04:08:12.034Z,7.45
2022-07-28T04:10:42.418Z,6.35
2022-07-28T04:13:12.940Z,6.70
2022-07-28T04:15:43.660Z,8.28
2022-07-28T04:18:13.480Z,7.50
2022-07-28T04:20:44.560Z,5.97
2022-07-28T04:23:14.653Z,4.35
2022-07-28T04:25:45.972Z,2.60
2022-07-28T04:28:16.823Z,4.40
2022-07-28T04:30:48.999Z,4.65
2022-07-28T04:33:20.298Z,2.95
2022-07-28T04:35:52.588Z,2.47
2022-07-28T04:38:23.132Z,4.28
2022-07-28T04:40:55.046Z,4.03
2022-07-28T04:43:24.496Z,6.53
2022-07-28T04:45:54.842Z,7.45
2022-07-28T04:48:25.556Z,4.75
2022-07-28T04:50:57.184Z,5.87
2022-07-28T04:53:29.342Z,5.08
2022-07-28T04:55:58.521Z,4.40
2022-07-28T04:58:28.309Z,6.78
2022-07-28T05:01:00.687Z,4.28
2022-07-28T05:03:35.711Z,6.22
2022-07-28T05:06:01.931Z,12.50
2022-07-28T05:08:31.799Z,5.30
2022-07-28T05:11:02.209Z,6.80
2022-07-28T05:13:34.339Z,5.95
2022-07-28T05:16:05.025Z,6.08
2022-07-28T05:18:37.647Z,6.35
2022-07-28T05:21:07.803Z,5.55
2022-07-28T05:23:37.505Z,3.87
2022-07-28T05:26:07.548Z,5.95
2022-07-28T05:28:38.088Z,5.08
2022-07-28T05:31:08.219Z,4.83
2022-07-28T05:33:37.670Z,5.05
2022-07-28T05:36:09.041Z,4.67
2022-07-28T05:38:39.227Z,5.70
2022-07-28T05:41:08.062Z,5.00
2022-07-28T05:43:40.304Z,3.40
2022-07-28T05:46:10.981Z,6.08
2022-07-28T05:48:40.309Z,3.92
2022-07-28T05:51:09.186Z,4.67
2022-07-28T05:53:38.389Z,6.75
2022-07-28T05:56:08.527Z,7.42
2022-07-28T05:58:39.054Z,10.48
2022-07-28T06:01:08.851Z,8.45
2022-07-28T06:03:42.320Z,6.78
2022-07-28T06:06:15.049Z,9.03
2022-07-28T06:08:44.497Z,6.12
2022-07-28T06:11:21.723Z,7.78
2022-07-28T06:13:50.135Z,5.87
2022-07-28T06:16:22.603Z,8.78
2022-07-28T06:18:53.279Z,7.58
2022-07-28T06:21:24.123Z,8.38
2022-07-28T06:23:54.381Z,8.93
2022-07-28T06:26:24.986Z,9.20
2022-07-28T06:28:55.114Z,10.40
2022-07-28T06:31:26.419Z,10.10
2022-07-28T06:33:56.676Z,10.35
2022-07-28T06:36:26.133Z,10.10
2022-07-28T06:38:55.705Z,11.90
2022-07-28T06:41:26.321Z,15.58
2022-07-28T06:46:39.062Z,13.50
2022-07-28T06:49:09.046Z,15.45
2022-07-28T06:51:38.679Z,13.35
2022-07-28T06:54:11.240Z,15.45
2022-07-28T06:56:40.435Z,12.58
2022-07-28T06:59:11.957Z,12.20
2022-07-28T07:01:41.614Z,13.85
2022-07-28T07:04:12.235Z,16.30
2022-07-28T07:06:43.468Z,15.68
2022-07-28T07:09:12.946Z,12.07
2022-07-28T07:11:42.956Z,10.78
2022-07-28T07:14:12.419Z,8.25
2022-07-28T07:16:42.869Z,10.78
2022-07-28T07:19:15.892Z,8.15
2022-07-28T07:21:46.099Z,8.60
2022-07-28T07:24:15.967Z,6.62
2022-07-28T07:26:45.372Z,6.42
2022-07-28T07:29:16.546Z,10.25
2022-07-28T07:31:46.322Z,8.23
2022-07-28T07:34:17.517Z,6.03
2022-07-28T07:36:48.136Z,7.03
2022-07-28T07:39:18.419Z,7.03
2022-07-28T07:41:47.851Z,7.22
2022-07-28T07:44:17.701Z,6.78
2022-07-28T07:46:49.203Z,6.42
2022-07-28T07:49:20.089Z,7.95
2022-07-28T07:51:49.127Z,9.23
2022-07-28T07:54:18.188Z,5.62
2022-07-28T07:56:48.587Z,6.80
2022-07-28T07:59:18.097Z,8.00
2022-07-28T08:01:49.963Z,3.83
2022-07-28T08:04:19.329Z,7.92
2022-07-28T08:06:51.081Z,8.55
2022-07-28T08:09:22.975Z,3.67
2022-07-28T08:11:54.024Z,5.55
2022-07-28T08:14:23.602Z,6.65
2022-07-28T08:16:53.382Z,5.50
2022-07-28T08:19:24.102Z,3.85
2022-07-28T08:21:53.381Z,4.78
2022-07-28T08:24:32.983Z,6.95
2022-07-28T08:26:56.277Z,3.22
2022-07-28T08:29:26.521Z,5.75
2022-07-28T08:31:57.595Z,5.15
2022-07-28T08:34:33.004Z,7.15
2022-07-28T08:37:05.657Z,4.53
2022-07-28T08:39:36.271Z,7.05
2022-07-28T08:42:15.997Z,7.00
2022-07-28T08:45:04.650Z,5.22
2022-07-28T08:47:58.862Z,6.42
2022-07-28T08:50:11.905Z,6.53
2022-07-28T08:52:42.831Z,7.20
2022-07-28T08:55:17.602Z,4.87
2022-07-28T08:57:44.023Z,5.37
2022-07-28T09:00:16.199Z,5.33
2022-07-28T09:02:52.184Z,5.17
2022-07-28T09:05:21.189Z,6.33
2022-07-28T09:07:55.204Z,6.12
2022-07-28T09:10:28.498Z,7.77
2022-07-28T09:13:00.057Z,4.20
2022-07-28T09:15:29.687Z,5.35
2022-07-28T09:18:00.740Z,5.40
2022-07-28T09:20:32.635Z,7.17
2022-07-28T09:23:41.855Z,9.55
2022-07-28T09:25:44.360Z,4.50
2022-07-28T09:28:18.211Z,7.95
2022-07-28T09:30:53.674Z,8.95
2022-07-28T09:33:42.028Z,5.92
2022-07-28T09:35:58.671Z,8.68
2022-07-28T09:38:28.421Z,6.20
2022-07-28T09:41:02.333Z,3.17
2022-07-28T09:43:43.742Z,6.80
2022-07-28T09:46:15.437Z,4.42
2022-07-28T09:48:58.248Z,4.62
2022-07-28T09:51:31.900Z,5.87
2022-07-28T09:54:14.435Z,6.25
2022-07-28T09:56:45.850Z,5.15
2022-07-28T09:59:18.329Z,3.50
2022-07-28T10:02:02.954Z,6.12
2022-07-28T10:04:39.887Z,3.98
2022-07-28T10:07:14.737Z,5.37
2022-07-28T10:09:44.430Z,4.90
2022-07-28T10:12:24.403Z,4.92
2022-07-28T10:15:04.287Z,3.50
2022-07-28T10:17:35.399Z,4.20
2022-07-28T10:20:06.920Z,4.45
2022-07-28T10:22:42.599Z,4.30
2022-07-28T10:25:10.076Z,3.08
2022-07-28T10:27:41.579Z,7.47
2022-07-28T10:30:12.723Z,3.00
2022-07-28T10:32:46.989Z,5.33
2022-07-28T10:35:18.286Z,6.15
2022-07-28T10:37:54.781Z,4.97
2022-07-28T10:40:32.308Z,5.25
2022-07-28T10:43:04.414Z,5.25
2022-07-28T10:46:04.611Z,5.22
2022-07-28T10:48:10.880Z,4.45
2022-07-28T10:50:43.395Z,8.30
2022-07-28T10:53:13.154Z,3.75
2022-07-28T10:55:50.397Z,8.23
2022-07-28T10:58:41.981Z,9.95
2022-07-28T11:01:26.746Z,4.78
2022-07-28T11:03:47.387Z,3.70
2022-07-28T11:06:29.489Z,5.95
2022-07-28T11:09:18.560Z,2.85
2022-07-28T11:11:54.368Z,3.42
2022-07-28T11:14:30.584Z,6.17
2022-07-28T11:17:11.307Z,7.28
2022-07-28T11:20:07.110Z,4.40
2022-07-28T11:22:27.210Z,5.53
2022-07-28T11:25:18.803Z,7.30
2022-07-28T11:27:52.091Z,4.87
2022-07-28T11:30:35.449Z,6.85
2022-07-28T11:33:11.177Z,7.33
2022-07-28T11:35:49.848Z,5.40
2022-07-28T11:38:20.194Z,6.35
2022-07-28T11:40:53.230Z,5.00
2022-07-28T11:43:35.702Z,5.33
2022-07-28T11:46:15.173Z,6.55
2022-07-28T11:48:46.223Z,6.83
2022-07-28T11:51:19.478Z,3.92
2022-07-28T11:53:53.799Z,9.28
2022-07-28T11:56:26.300Z,4.95
2022-07-28T11:59:03.767Z,6.72
2022-07-28T12:01:38.286Z,4.33
2022-07-28T12:04:13.363Z,5.72
2022-07-28T12:06:49.502Z,7.83
2022-07-28T12:09:23.314Z,9.43
2022-07-28T12:11:51.474Z,6.95
2022-07-28T12:14:24.600Z,7.37
2022-07-28T12:16:55.241Z,6.25
2022-07-28T12:19:32.668Z,9.65
2022-07-28T12:21:58.376Z,6.40
2022-07-28T12:24:31.833Z,6.25
2022-07-28T12:27:04.794Z,5.15
2022-07-28T12:29:36.609Z,5.85
2022-07-28T12:32:09.438Z,7.08
2022-07-28T12:34:40.838Z,7.05
2022-07-28T12:37:10.243Z,7.17
2022-07-28T12:39:44.294Z,8.60
2022-07-28T12:42:14.613Z,6.87
2022-07-28T12:44:46.157Z,7.67
2022-07-28T12:47:18.569Z,5.92
2022-07-28T12:49:51.846Z,7.53
2022-07-28T12:52:24.777Z,8.88
2022-07-28T12:54:56.426Z,9.23
2022-07-28T12:57:49.898Z,9.35
2022-07-28T13:00:18.127Z,6.10
2022-07-28T13:02:50.070Z,7.12
2022-07-28T13:05:36.194Z,7.35
2022-07-28T13:08:08.044Z,6.55
2022-07-28T13:10:40.921Z,7.62
2022-07-28T13:13:13.653Z,6.80
2022-07-28T13:15:44.564Z,9.03
2022-07-28T13:18:15.494Z,6.30
2022-07-28T13:20:49.163Z,7.45
2022-07-28T13:23:20.956Z,7.85
2022-07-28T13:25:52.135Z,7.00
2022-07-28T13:28:26.132Z,7.85
2022-07-28T13:30:55.827Z,6.35
2022-07-28T13:33:29.782Z,6.00
2022-07-28T13:36:00.666Z,7.12
2022-07-28T13:38:29.697Z,7.60
2022-07-28T13:41:00.764Z,5.80
2022-07-28T13:43:36.264Z,5.47
2022-07-28T13:46:02.179Z,9.23
2022-07-28T13:48:32.929Z,12.50
2022-07-28T13:51:03.267Z,7.65
2022-07-28T13:53:32.474Z,8.15
2022-07-28T13:56:01.378Z,6.33
2022-07-28T13:58:31.432Z,4.17
2022-07-28T14:01:01.744Z,7.00
2022-07-28T14:03:55.450Z,8.28
2022-07-28T14:06:04.176Z,5.12
2022-07-28T14:08:34.707Z,4.60
2022-07-28T14:11:05.804Z,4.83
2022-07-28T14:13:38.591Z,3.85
2022-07-28T14:16:11.061Z,5.55
2022-07-28T14:18:39.687Z,7.22
2022-07-28T14:21:09.199Z,2.30
2022-07-28T14:23:39.373Z,4.30
2022-07-28T14:26:34.603Z,4.30
2022-07-28T14:28:42.467Z,4.28
2022-07-28T14:31:12.785Z,3.67
2022-07-28T14:33:48.385Z,2.45
2022-07-28T14:36:17.112Z,4.00
2022-07-28T14:38:53.437Z,2.55
2022-07-28T14:41:18.678Z,3.87
2022-07-28T14:43:48.598Z,4.67
2022-07-28T14:46:21.622Z,5.12
2022-07-28T14:48:50.391Z,3.95
2022-07-28T14:51:19.692Z,2.95
2022-07-28T14:53:52.196Z,3.17
2022-07-28T14:56:21.579Z,6.45
2022-07-28T14:58:51.301Z,3.20
2022-07-28T15:01:20.655Z,2.87
2022-07-28T15:03:50.343Z,3.85
2022-07-28T15:06:19.777Z,4.95
2022-07-28T15:08:50.263Z,5.17
2022-07-28T15:11:22.342Z,3.87
2022-07-28T15:13:53.169Z,5.22
2022-07-28T15:16:23.803Z,3.12
2022-07-28T15:18:54.200Z,3.95
2022-07-28T15:21:24.138Z,3.02
2022-07-28T15:23:53.568Z,4.45
2022-07-28T15:26:24.932Z,3.58
2022-07-28T15:28:54.807Z,6.40
2022-07-28T15:31:25.362Z,2.95
2022-07-28T15:33:59.168Z,4.37
2022-07-28T15:36:34.967Z,9.48
2022-07-28T15:39:06.753Z,3.37
2022-07-28T15:41:44.692Z,2.98
2022-07-28T15:44:17.018Z,5.90
2022-07-28T15:47:10.083Z,3.15
2022-07-28T15:49:40.085Z,6.15
2022-07-28T15:52:10.277Z,2.00
2022-07-28T15:54:40.331Z,4.42
2022-07-28T15:57:11.824Z,4.55
2022-07-28T15:59:48.707Z,2.72
2022-07-28T16:02:17.411Z,5.12
2022-07-28T16:04:49.017Z,7.67
2022-07-28T16:07:22.570Z,5.30
2022-07-28T16:09:53.980Z,4.00
2022-07-28T16:12:27.912Z,4.30
2022-07-28T16:14:58.677Z,3.25
2022-07-28T16:17:28.140Z,4.70
2022-07-28T16:20:02.353Z,3.52
2022-07-28T16:22:32.220Z,6.12
2022-07-28T16:25:01.637Z,2.00
2022-07-28T16:27:32.498Z,4.05
2022-07-28T16:30:03.194Z,3.92
2022-07-28T16:32:33.960Z,2.85
2022-07-28T16:35:03.487Z,3.08
2022-07-28T16:37:35.562Z,3.60
2022-07-28T16:40:05.844Z,6.78
2022-07-28T16:42:38.613Z,3.55
2022-07-28T16:45:09.771Z,3.98
2022-07-28T16:47:38.782Z,8.35
2022-07-28T16:50:09.769Z,6.65
2022-07-28T16:52:40.574Z,4.28
2022-07-28T16:55:15.220Z,5.22
2022-07-28T16:57:41.695Z,3.85
2022-07-28T17:00:12.486Z,6.22
2022-07-28T17:02:43.066Z,4.75
2022-07-28T17:05:13.523Z,4.78
2022-07-28T17:07:45.812Z,3.52
2022-07-28T17:10:20.276Z,7.00
2022-07-28T17:12:49.632Z,5.03
2022-07-28T17:15:22.766Z,3.62
2022-07-28T17:17:54.024Z,7.05
2022-07-28T17:20:25.417Z,4.83
2022-07-28T17:22:55.808Z,3.42
2022-07-28T17:27:58.469Z,6.22
2022-07-28T17:30:30.093Z,6.33
2022-07-28T17:33:03.495Z,5.47
2022-07-28T17:35:35.258Z,10.82
2022-07-28T17:38:04.302Z,5.28
2022-07-28T17:40:35.019Z,9.88
2022-07-28T17:43:05.066Z,6.45
2022-07-28T17:45:34.531Z,3.83
2022-07-28T17:48:04.811Z,5.03
2022-07-28T17:50:34.263Z,4.30
2022-07-28T17:53:03.799Z,4.65
2022-07-28T17:55:40.820Z,5.65
2022-07-28T17:58:23.516Z,5.85
2022-07-28T18:03:29.229Z,2.55
2022-07-28T18:06:00.736Z,4.80
2022-07-28T18:08:30.865Z,10.50
2022-07-28T18:11:01.521Z,5.78
2022-07-28T18:13:31.989Z,3.87
2022-07-28T18:16:03.406Z,3.55
2022-07-28T18:18:34.882Z,11.73
2022-07-28T18:21:04.944Z,7.30
2022-07-28T18:23:35.475Z,8.93
2022-07-28T18:26:04.646Z,5.78
2022-07-28T18:28:36.112Z,8.53
2022-07-28T18:31:10.912Z,6.47
2022-07-28T18:33:41.813Z,6.25
2022-07-28T18:36:11.093Z,7.78
2022-07-28T18:38:41.414Z,7.72
2022-07-28T18:41:10.767Z,9.45
2022-07-28T18:43:40.390Z,5.33
2022-07-28T18:46:10.364Z,7.30
2022-07-28T18:48:40.244Z,6.62
2022-07-28T18:51:10.873Z,8.85
2022-07-28T18:53:40.720Z,6.78
2022-07-28T18:56:10.622Z,8.70
2022-07-28T18:58:42.210Z,8.63
2022-07-28T19:01:13.167Z,12.73
2022-07-28T19:03:43.503Z,14.73
2022-07-28T19:06:12.572Z,16.40
2022-07-28T19:08:44.290Z,16.70
2022-07-28T19:11:18.729Z,18.85
2022-07-28T19:13:45.940Z,16.62
2022-07-28T19:16:15.719Z,20.77
2022-07-28T19:18:47.080Z,19.20
2022-07-28T19:21:15.979Z,21.77
2022-07-28T19:23:46.933Z,18.20
2022-07-28T19:26:16.884Z,14.00
2022-07-28T19:28:47.078Z,19.92
2022-07-28T19:31:18.165Z,18.05
2022-07-28T19:33:48.496Z,21.48
2022-07-28T19:36:20.160Z,18.23
2022-07-28T19:38:49.340Z,9.55
2022-07-28T19:41:19.773Z,7.45
2022-07-28T19:43:49.454Z,8.33
2022-07-28T19:46:19.339Z,6.97
2022-07-28T19:48:49.876Z,7.20
2022-07-28T19:51:19.641Z,8.05
2022-07-28T19:53:49.454Z,6.78
2022-07-28T19:56:19.277Z,7.20
2022-07-28T19:58:49.967Z,5.25
2022-07-28T20:01:19.220Z,5.78
2022-07-28T20:04:03.693Z,4.05
2022-07-28T20:06:25.127Z,5.72
2022-07-28T20:08:56.608Z,3.85
2022-07-28T20:11:27.939Z,6.70
2022-07-28T20:13:57.918Z,3.90
2022-07-28T20:16:27.960Z,7.65
2022-07-28T20:18:58.034Z,5.70
2022-07-28T20:21:28.520Z,3.22
2022-07-28T20:23:59.873Z,3.70
2022-07-28T20:26:30.021Z,7.25
2022-07-28T20:29:01.711Z,8.65
2022-07-28T20:31:32.906Z,6.62
2022-07-28T20:34:04.377Z,5.40
2022-07-28T20:36:35.185Z,5.30
2022-07-28T20:39:21.167Z,5.20
2022-07-28T20:41:37.707Z,6.40
2022-07-28T20:44:27.705Z,6.67
2022-07-28T20:46:40.443Z,5.05
2022-07-28T20:49:10.283Z,6.30
2022-07-28T20:51:40.316Z,4.03
2022-07-28T20:54:12.193Z,5.78
2022-07-28T20:56:43.672Z,4.92
2022-07-28T20:59:13.934Z,8.65
2022-07-28T21:01:44.365Z,7.45
2022-07-28T21:04:13.916Z,4.33
2022-07-28T21:06:51.999Z,5.42
2022-07-28T21:09:15.632Z,6.22
2022-07-28T21:11:46.014Z,4.85
2022-07-28T21:14:16.603Z,7.37
2022-07-28T21:16:46.876Z,3.52
2022-07-28T21:19:17.693Z,4.58
2022-07-28T21:21:47.553Z,3.45
2022-07-28T21:24:18.135Z,7.67
2022-07-28T21:26:50.408Z,5.67
2022-07-28T21:32:04.230Z,3.87
2022-07-28T21:34:23.321Z,3.85
2022-07-28T21:36:53.788Z,3.60
2022-07-28T21:39:23.937Z,5.40
2022-07-28T21:41:53.790Z,8.23
2022-07-28T21:44:23.383Z,4.37
2022-07-28T21:46:54.490Z,5.05
2022-07-28T21:49:26.186Z,4.15
2022-07-28T21:51:57.365Z,6.42
2022-07-28T21:54:27.364Z,4.20
2022-07-28T21:56:56.647Z,3.12
2022-07-28T21:59:26.876Z,6.53
2022-07-28T22:01:57.875Z,6.90
2022-07-28T22:04:28.152Z,6.55
2022-07-28T22:06:58.347Z,4.47
2022-07-28T22:09:30.518Z,4.65
2022-07-28T22:12:03.623Z,6.92
2022-07-28T22:14:34.059Z,7.90
2022-07-28T22:17:05.773Z,4.97
2022-07-28T22:19:36.224Z,5.58
2022-07-28T22:22:06.143Z,5.00
2022-07-28T22:24:36.306Z,4.58
2022-07-28T22:27:06.546Z,6.80
2022-07-28T22:29:36.610Z,10.72
2022-07-28T22:32:07.777Z,3.83
2022-07-28T22:34:40.821Z,4.67
2022-07-28T22:37:13.160Z,5.97
2022-07-28T22:39:42.966Z,6.90
2022-07-28T22:42:11.946Z,6.28
2022-07-28T22:44:43.353Z,8.18
2022-07-28T22:47:13.997Z,5.28
2022-07-28T22:49:44.293Z,7.15
2022-07-28T22:52:13.959Z,8.50
2022-07-28T22:54:44.172Z,5.97
2022-07-28T22:57:14.142Z,7.60
2022-07-28T22:59:48.029Z,6.03
2022-07-28T23:02:16.533Z,6.08
2022-07-28T23:04:51.565Z,3.47
2022-07-28T23:07:19.220Z,5.50
2022-07-28T23:09:51.161Z,6.42
2022-07-28T23:12:22.016Z,3.83
2022-07-28T23:14:51.686Z,5.30
2022-07-28T23:17:20.484Z,5.03
2022-07-28T23:19:53.199Z,5.50
2022-07-28T23:22:25.424Z,4.72
2022-07-28T23:24:54.481Z,5.33
2022-07-28T23:27:23.870Z,5.70
2022-07-28T23:29:54.617Z,5.67
2022-07-28T23:32:25.801Z,6.45
2022-07-28T23:34:57.434Z,5.78
2022-07-28T23:37:28.917Z,4.70
2022-07-28T23:39:59.226Z,6.12
2022-07-28T23:42:28.609Z,4.62
2022-07-28T23:44:58.570Z,6.70
2022-07-28T23:47:28.095Z,4.55
2022-07-28T23:49:58.406Z,4.00
2022-07-28T23:52:29.018Z,3.27
2022-07-28T23:54:58.264Z,6.80
2022-07-28T23:57:31.049Z,9.78
